This is the latest recevied weather packets stored in our database for station/object SQ8NA-15. If no packets are shown the sender has not sent any weather packets the latest 10 day(s).
| Time | Temp. | Humidity | Pressure | Rain* | Wind** | Luminosity | Snow |
|---|---|---|---|---|---|---|---|
| 1787561138 | 20.56° C | 50% | 984.4 hPa | 0 mm | - | 596 W/m² | - |
| 1787560525 | 20° C | 54% | 984.5 hPa | 0 mm | - | 583 W/m² | - |
| 1787559301 | 20° C | 59% | 984.5 hPa | 0 mm | - | 534 W/m² | - |
| 1787558687 | 19.44° C | 59% | 984.6 hPa | 0 mm | - | 510 W/m² | - |
| 1787558077 | 18.89° C | 60% | 984.5 hPa | 0 mm | - | 486 W/m² | - |
| 1787556851 | 18.89° C | 61% | 984.6 hPa | 0 mm | - | 427 W/m² | - |
| 1787556251 | 17.78° C | 67% | 984.7 hPa | 0 mm | - | 393 W/m² | - |
| 1787555637 | 17.78° C | 67% | 984.8 hPa | 0 mm | - | 357 W/m² | - |
| 1787554413 | 17.22° C | 66% | 984.6 hPa | 0 mm | - | 295 W/m² | - |
| 1787553813 | 15.56° C | 72% | 984.6 hPa | 0 mm | - | 267 W/m² | - |
| 1787553200 | 15.56° C | 73% | 984.5 hPa | 0 mm | - | 239 W/m² | - |
| 1787551986 | 13.89° C | 77% | 984.6 hPa | 0 mm | - | 114 W/m² | - |
| 1787551376 | 13.89° C | 76% | 984.7 hPa | 0 mm | - | 90 W/m² | - |
| 1787550776 | 12.78° C | 81% | 984.6 hPa | 0 mm | - | 78 W/m² | - |
| 1787549550 | 11.67° C | 80% | 984.5 hPa | 0 mm | - | 65 W/m² | - |
| 1787548925 | 11.11° C | 83% | 984.5 hPa | 0 mm | - | 58 W/m² | - |
| 1787548324 | 10.56° C | 85% | 984.5 hPa | 0 mm | - | 53 W/m² | - |
| 1787547075 | 9.44° C | 87% | 984.5 hPa | 0 mm | - | 43 W/m² | - |
| 1787546475 | 8.33° C | 93% | 984.5 hPa | 0 mm | - | 38 W/m² | - |
| 1787545874 | 7.78° C | 97% | 984.5 hPa | 0 mm | - | 32 W/m² | - |
| 1787544650 | 7.22° C | 97% | 984.5 hPa | 0 mm | - | 21 W/m² | - |
| 1787544050 | 6.67° C | 97% | 984.4 hPa | 0 mm | - | 15 W/m² | - |
| 1787543436 | 6.11° C | 97% | 984.5 hPa | 0 mm | - | 9 W/m² | - |
| 1787542210 | 6.67° C | 97% | 984.4 hPa | 0 mm | - | 2 W/m² | - |
| 1787541600 | 6.67° C | 97% | 984.5 hPa | 0 mm | - | 1 W/m² | - |
* Rain latest hour (hover to see other rain measurements)
** Current wind speed in m/s (hover to see current wind gust speed)